createdAt,value
2023-03-10T00:01:11.229Z,60.81
2023-03-10T00:03:38.876Z,60.77
2023-03-10T00:06:07.326Z,60.88
2023-03-10T00:08:36.464Z,60.60
2023-03-10T00:11:04.343Z,60.72
2023-03-10T00:13:32.001Z,60.77
2023-03-10T00:15:59.846Z,60.81
2023-03-10T00:18:27.620Z,60.64
2023-03-10T00:20:55.861Z,60.73
2023-03-10T00:23:23.983Z,60.60
2023-03-10T00:26:00.648Z,60.90
2023-03-10T00:28:28.811Z,60.71
2023-03-10T00:31:01.252Z,60.67
2023-03-10T00:33:29.217Z,60.58
2023-03-10T00:36:07.496Z,60.75
2023-03-10T00:38:35.532Z,60.71
2023-03-10T00:41:07.172Z,60.38
2023-03-10T00:43:35.940Z,60.55
2023-03-10T00:46:03.953Z,60.81
2023-03-10T00:48:32.543Z,60.81
2023-03-10T00:51:01.221Z,60.92
2023-03-10T00:53:29.658Z,60.65
2023-03-10T00:56:02.471Z,60.77
2023-03-10T00:58:32.884Z,60.72
2023-03-10T01:01:01.556Z,60.74
2023-03-10T01:03:30.754Z,60.70
2023-03-10T01:05:58.471Z,60.78
2023-03-10T01:08:26.085Z,60.47
2023-03-10T01:10:53.745Z,60.72
2023-03-10T01:13:21.480Z,60.86
2023-03-10T01:15:51.079Z,60.99
2023-03-10T01:18:21.148Z,60.56
2023-03-10T01:20:49.541Z,60.48
2023-03-10T01:23:20.630Z,60.65
2023-03-10T01:25:48.947Z,60.76
2023-03-10T01:28:17.636Z,60.61
2023-03-10T01:30:46.022Z,60.72
2023-03-10T01:33:16.070Z,60.60
2023-03-10T01:35:44.286Z,60.95
2023-03-10T01:38:12.106Z,60.75
2023-03-10T01:40:40.155Z,60.72
2023-03-10T01:43:28.316Z,60.90
2023-03-10T01:46:42.580Z,60.76
2023-03-10T01:49:25.424Z,60.58
2023-03-10T01:51:59.385Z,60.69
2023-03-10T01:54:31.783Z,60.68
2023-03-10T01:56:59.953Z,60.70
2023-03-10T01:59:28.693Z,60.72
2023-03-10T02:01:57.843Z,60.77
2023-03-10T02:04:34.637Z,60.83
2023-03-10T02:07:05.185Z,60.72
2023-03-10T02:09:38.189Z,60.99
2023-03-10T02:12:08.537Z,60.70
2023-03-10T02:14:36.621Z,60.49
2023-03-10T02:17:05.761Z,60.57
2023-03-10T02:19:48.953Z,60.87
2023-03-10T02:22:17.272Z,60.39
2023-03-10T02:24:51.076Z,60.58
2023-03-10T02:27:22.852Z,60.69
2023-03-10T02:29:59.683Z,60.42
2023-03-10T02:32:29.625Z,60.88
2023-03-10T02:34:57.528Z,60.87
2023-03-10T02:37:28.284Z,60.75
2023-03-10T02:39:55.942Z,60.54
2023-03-10T02:42:27.967Z,60.66
2023-03-10T02:44:56.549Z,60.65
2023-03-10T02:47:24.373Z,60.66
2023-03-10T02:49:52.007Z,60.85
2023-03-10T02:52:28.995Z,60.66
2023-03-10T02:54:56.583Z,60.78
2023-03-10T02:57:25.496Z,60.52
2023-03-10T02:59:53.133Z,60.75
2023-03-10T03:02:20.766Z,60.61
2023-03-10T03:04:48.356Z,60.67
2023-03-10T03:07:16.035Z,60.74
2023-03-10T03:09:43.641Z,60.61
2023-03-10T03:12:11.224Z,60.58
2023-03-10T03:14:40.208Z,60.74
2023-03-10T03:17:07.803Z,60.69
2023-03-10T03:19:35.398Z,60.61
2023-03-10T03:22:03.034Z,60.67
2023-03-10T03:24:32.059Z,60.83
2023-03-10T03:26:59.975Z,60.98
2023-03-10T03:29:27.602Z,60.70
2023-03-10T03:31:56.627Z,60.86
2023-03-10T03:34:24.204Z,60.91
2023-03-10T03:36:52.088Z,60.67
2023-03-10T03:39:19.679Z,60.57
2023-03-10T03:41:48.463Z,60.37
2023-03-10T03:44:16.054Z,60.75
2023-03-10T03:46:43.635Z,60.68
2023-03-10T03:49:12.541Z,60.47
2023-03-10T03:51:40.294Z,60.76
2023-03-10T03:54:07.930Z,60.80
2023-03-10T03:56:35.542Z,60.72
2023-03-10T03:59:03.178Z,60.91
2023-03-10T04:01:30.781Z,60.66
2023-03-10T04:03:58.378Z,60.72
2023-03-10T04:06:27.534Z,60.43
2023-03-10T04:08:55.137Z,60.71
2023-03-10T04:11:22.714Z,60.59
2023-03-10T04:13:50.350Z,60.87
2023-03-10T04:16:17.946Z,60.98
2023-03-10T04:18:45.750Z,60.71
2023-03-10T04:21:13.538Z,60.96
2023-03-10T04:23:43.743Z,60.68
2023-03-10T04:26:11.897Z,60.45
2023-03-10T04:28:39.523Z,60.61
2023-03-10T04:31:14.097Z,60.83
2023-03-10T04:33:41.748Z,60.65
2023-03-10T04:36:09.694Z,60.69
2023-03-10T04:38:37.602Z,60.73
2023-03-10T04:41:06.820Z,60.81
2023-03-10T04:43:34.471Z,60.60
2023-03-10T04:46:02.535Z,60.94
2023-03-10T04:48:30.435Z,60.60
2023-03-10T04:50:58.611Z,60.80
2023-03-10T04:53:26.293Z,60.63
2023-03-10T04:55:54.080Z,60.61
2023-03-10T04:58:24.193Z,60.69
2023-03-10T05:01:02.507Z,60.71
2023-03-10T05:03:31.002Z,60.64
2023-03-10T05:05:59.087Z,60.68
2023-03-10T05:08:26.842Z,60.82
2023-03-10T05:10:54.468Z,60.54
2023-03-10T05:13:23.459Z,60.66
2023-03-10T05:15:51.110Z,60.78
2023-03-10T05:18:19.571Z,60.81
2023-03-10T05:20:53.600Z,60.49
2023-03-10T05:23:21.285Z,60.77
2023-03-10T05:25:49.087Z,60.58
2023-03-10T05:28:17.234Z,60.76
2023-03-10T05:30:46.294Z,60.62
2023-03-10T05:33:13.888Z,60.66
2023-03-10T05:35:41.674Z,60.71
2023-03-10T05:38:09.305Z,60.51
2023-03-10T05:40:37.028Z,60.61
2023-03-10T05:43:04.614Z,60.48
2023-03-10T05:45:32.210Z,60.70
2023-03-10T05:48:01.528Z,60.71
2023-03-10T05:50:29.495Z,60.73
2023-03-10T05:52:57.305Z,60.59
2023-03-10T05:55:25.115Z,60.71
2023-03-10T05:57:52.808Z,60.86
2023-03-10T06:00:21.323Z,60.92
2023-03-10T06:02:49.030Z,60.68
2023-03-10T06:05:18.167Z,60.65
2023-03-10T06:07:45.778Z,60.44
2023-03-10T06:10:13.432Z,60.52
2023-03-10T06:12:41.093Z,60.53
2023-03-10T06:15:09.715Z,60.49
2023-03-10T06:17:37.333Z,60.47
2023-03-10T06:20:05.627Z,60.41
2023-03-10T06:22:34.552Z,60.76
2023-03-10T06:25:02.285Z,60.60
2023-03-10T06:27:30.908Z,60.74
2023-03-10T06:29:58.522Z,60.64
2023-03-10T06:32:26.524Z,60.49
2023-03-10T06:34:54.151Z,60.58
2023-03-10T06:37:21.958Z,60.76
2023-03-10T06:39:50.986Z,60.83
2023-03-10T06:42:18.547Z,60.90
2023-03-10T06:44:49.115Z,60.70
2023-03-10T06:47:16.876Z,60.75
2023-03-10T06:49:44.470Z,60.66
2023-03-10T06:52:12.061Z,60.79
2023-03-10T06:54:39.704Z,60.97
2023-03-10T06:57:08.686Z,60.80
2023-03-10T06:59:36.299Z,60.56
2023-03-10T07:02:03.970Z,60.75
2023-03-10T07:04:31.587Z,60.81
2023-03-10T07:06:59.278Z,60.98
2023-03-10T07:09:26.961Z,60.68
2023-03-10T07:11:54.522Z,61.06
2023-03-10T07:14:23.484Z,60.81
2023-03-10T07:16:51.192Z,60.93
2023-03-10T07:19:18.792Z,60.57
2023-03-10T07:21:46.418Z,60.51
2023-03-10T07:24:14.063Z,60.93
2023-03-10T07:26:41.747Z,60.83
2023-03-10T07:29:09.580Z,60.82
2023-03-10T07:31:38.547Z,61.20
2023-03-10T07:34:06.108Z,60.94
2023-03-10T07:36:33.767Z,60.82
2023-03-10T07:39:01.322Z,60.56
2023-03-10T07:41:29.030Z,61.00
2023-03-10T07:43:57.031Z,60.91
2023-03-10T07:46:24.718Z,60.99
2023-03-10T07:48:53.870Z,60.92
2023-03-10T07:51:21.555Z,60.86
2023-03-10T07:53:49.170Z,61.02
2023-03-10T07:56:17.160Z,60.70
2023-03-10T07:58:44.902Z,61.15
2023-03-10T08:01:16.985Z,60.94
2023-03-10T08:03:44.889Z,60.90
2023-03-10T08:06:19.580Z,61.01
2023-03-10T08:08:47.586Z,60.70
2023-03-10T08:11:15.271Z,60.69
2023-03-10T08:13:45.303Z,60.90
2023-03-10T08:16:13.184Z,60.69
2023-03-10T08:18:40.817Z,60.90
2023-03-10T08:21:09.056Z,60.91
2023-03-10T08:23:39.375Z,60.97
2023-03-10T08:26:09.174Z,60.94
2023-03-10T08:28:38.897Z,60.84
2023-03-10T08:31:11.189Z,61.03
2023-03-10T08:33:39.883Z,60.96
2023-03-10T08:36:09.815Z,60.99
2023-03-10T08:38:38.979Z,60.93
2023-03-10T08:41:11.666Z,60.96
2023-03-10T08:43:40.157Z,61.12
2023-03-10T08:46:09.043Z,61.12
2023-03-10T08:48:37.045Z,60.70
2023-03-10T08:51:05.379Z,60.88
2023-03-10T08:53:33.964Z,60.90
2023-03-10T08:56:03.064Z,60.97
2023-03-10T08:58:30.723Z,61.06
2023-03-10T09:00:58.469Z,61.03
2023-03-10T09:03:29.503Z,61.02
2023-03-10T09:05:58.918Z,60.97
2023-03-10T09:08:27.794Z,61.30
2023-03-10T09:10:56.470Z,60.86
2023-03-10T09:13:25.498Z,61.25
2023-03-10T09:15:53.374Z,60.82
2023-03-10T09:18:21.631Z,60.76
2023-03-10T09:20:49.540Z,60.90
2023-03-10T09:23:17.998Z,61.00
2023-03-10T09:25:45.690Z,61.12
2023-03-10T09:28:13.348Z,61.05
2023-03-10T09:30:43.288Z,60.79
2023-03-10T09:33:17.133Z,61.09
2023-03-10T09:35:52.837Z,61.04
2023-03-10T09:38:25.461Z,61.10
2023-03-10T09:41:11.593Z,61.21
2023-03-10T09:43:42.112Z,61.13
2023-03-10T09:46:21.421Z,61.12
2023-03-10T09:48:54.159Z,61.17
2023-03-10T09:51:24.032Z,61.16
2023-03-10T09:54:01.430Z,61.37
2023-03-10T09:56:33.240Z,60.66
2023-03-10T09:59:07.394Z,61.13
2023-03-10T10:01:37.487Z,60.99
2023-03-10T10:04:10.623Z,60.98
2023-03-10T10:06:42.305Z,61.16
2023-03-10T10:09:18.243Z,61.13
2023-03-10T10:11:45.885Z,61.21
2023-03-10T10:14:27.757Z,60.88
2023-03-10T10:17:03.803Z,61.17
2023-03-10T10:19:33.798Z,61.40
2023-03-10T10:22:08.566Z,60.99
2023-03-10T10:24:36.201Z,60.94
2023-03-10T10:27:03.828Z,61.10
2023-03-10T10:29:37.060Z,61.12
2023-03-10T10:32:11.645Z,61.03
2023-03-10T10:34:40.900Z,61.00
2023-03-10T10:37:29.782Z,61.29
2023-03-10T10:39:58.942Z,60.96
2023-03-10T10:42:28.234Z,60.99
2023-03-10T10:44:57.873Z,61.15
2023-03-10T10:47:30.194Z,61.01
2023-03-10T10:50:18.440Z,60.81
2023-03-10T10:52:48.900Z,61.15
2023-03-10T10:55:29.737Z,61.13
2023-03-10T10:58:01.487Z,61.23
2023-03-10T11:00:33.137Z,61.05
2023-03-10T11:03:02.393Z,61.15
2023-03-10T11:05:34.337Z,61.09
2023-03-10T11:08:18.932Z,61.10
2023-03-10T11:10:54.286Z,61.19
2023-03-10T11:13:27.638Z,60.85
2023-03-10T11:16:02.593Z,61.11
2023-03-10T11:18:37.526Z,60.98
2023-03-10T11:21:13.102Z,61.31
2023-03-10T11:23:46.398Z,61.19
2023-03-10T11:26:24.771Z,61.17
2023-03-10T11:28:57.865Z,61.28
2023-03-10T11:31:37.329Z,61.17
2023-03-10T11:34:19.643Z,60.99
2023-03-10T11:36:56.577Z,61.20
2023-03-10T11:39:34.979Z,61.14
2023-03-10T11:42:12.101Z,61.02
2023-03-10T11:44:44.053Z,61.07
2023-03-10T11:47:21.796Z,61.04
2023-03-10T11:49:59.383Z,60.85
2023-03-10T11:52:29.515Z,61.03
2023-03-10T11:55:05.692Z,61.21
2023-03-10T11:57:40.599Z,61.16
2023-03-10T12:00:19.440Z,61.19
2023-03-10T12:02:57.982Z,61.38
2023-03-10T12:05:27.989Z,61.19
2023-03-10T12:08:01.538Z,61.43
2023-03-10T12:10:31.357Z,61.52
2023-03-10T12:13:00.790Z,61.22
2023-03-10T12:15:36.032Z,61.17
2023-03-10T12:18:05.324Z,61.25
2023-03-10T12:20:35.466Z,61.18
2023-03-10T12:23:40.526Z,61.12
2023-03-10T12:26:08.645Z,61.17
2023-03-10T12:28:36.393Z,61.23
2023-03-10T12:31:06.406Z,61.21
2023-03-10T12:34:09.041Z,61.39
2023-03-10T12:36:40.443Z,61.01
2023-03-10T12:39:33.001Z,61.20
2023-03-10T12:42:02.530Z,61.50
2023-03-10T12:44:37.867Z,61.18
2023-03-10T12:47:30.475Z,61.33
2023-03-10T12:50:04.261Z,61.42
2023-03-10T12:52:48.045Z,60.93
2023-03-10T12:55:19.000Z,61.10
2023-03-10T12:57:55.101Z,61.05
2023-03-10T13:00:31.532Z,61.11
2023-03-10T13:03:05.088Z,61.23
2023-03-10T13:05:35.287Z,61.36
2023-03-10T13:08:14.486Z,61.05
2023-03-10T13:10:42.586Z,61.35
2023-03-10T13:13:17.904Z,61.14
2023-03-10T13:15:57.768Z,60.90
2023-03-10T13:18:25.417Z,60.94
2023-03-10T13:20:53.070Z,61.14
2023-03-10T13:23:24.957Z,61.29
2023-03-10T13:25:57.540Z,61.05
2023-03-10T13:28:26.582Z,61.10
2023-03-10T13:31:19.246Z,61.00
2023-03-10T13:33:53.669Z,61.29
2023-03-10T13:36:24.059Z,61.18
2023-03-10T13:38:53.257Z,61.17
2023-03-10T13:41:20.868Z,61.17
2023-03-10T13:43:49.816Z,61.46
2023-03-10T13:46:20.095Z,61.16
2023-03-10T13:48:48.738Z,61.16
2023-03-10T13:51:19.734Z,61.39
2023-03-10T13:53:49.810Z,61.09
2023-03-10T13:56:24.211Z,61.33
2023-03-10T13:58:54.147Z,60.98
2023-03-10T14:01:24.949Z,61.28
2023-03-10T14:03:54.829Z,61.12
2023-03-10T14:06:22.882Z,61.21
2023-03-10T14:08:51.379Z,61.18
2023-03-10T14:11:33.559Z,61.18
2023-03-10T14:14:02.268Z,61.16
2023-03-10T14:16:53.074Z,61.22
2023-03-10T14:19:51.723Z,61.29
2023-03-10T14:22:24.209Z,61.29
2023-03-10T14:24:51.994Z,61.17
2023-03-10T14:27:21.424Z,61.50
2023-03-10T14:29:51.180Z,61.42
2023-03-10T14:32:19.470Z,61.40
2023-03-10T14:34:47.471Z,61.25
2023-03-10T14:37:15.517Z,61.08
2023-03-10T14:39:43.124Z,61.13
2023-03-10T14:42:20.081Z,61.23
2023-03-10T14:44:50.329Z,61.30
2023-03-10T14:47:18.908Z,61.18
2023-03-10T14:49:47.173Z,61.31
2023-03-10T14:52:17.170Z,61.06
2023-03-10T14:54:45.083Z,61.15
2023-03-10T14:57:15.933Z,61.44
2023-03-10T14:59:43.569Z,61.02
2023-03-10T15:02:19.778Z,61.21
2023-03-10T15:04:47.445Z,61.24
2023-03-10T15:07:15.664Z,61.20
2023-03-10T15:09:43.311Z,61.46
2023-03-10T15:12:11.203Z,61.23
2023-03-10T15:14:38.811Z,61.56
2023-03-10T15:17:06.479Z,61.38
2023-03-10T15:19:35.878Z,61.00
2023-03-10T15:22:03.453Z,61.56
2023-03-10T15:24:31.052Z,61.54
2023-03-10T15:26:58.686Z,61.01
2023-03-10T15:29:26.269Z,61.33
2023-03-10T15:31:53.923Z,61.32
2023-03-10T15:34:21.504Z,61.34
2023-03-10T15:36:50.733Z,61.42
2023-03-10T15:39:30.660Z,61.41
2023-03-10T15:41:58.986Z,61.39
2023-03-10T15:44:26.926Z,61.47
2023-03-10T15:46:55.860Z,61.43
2023-03-10T15:49:23.974Z,61.36
2023-03-10T15:51:52.947Z,61.25
2023-03-10T15:54:20.565Z,61.39
2023-03-10T15:56:48.182Z,61.24
2023-03-10T15:59:16.115Z,61.37
2023-03-10T16:01:43.776Z,61.47
2023-03-10T16:04:11.474Z,61.04
2023-03-10T16:06:39.064Z,61.14
2023-03-10T16:09:09.189Z,61.60
2023-03-10T16:11:36.923Z,61.48
2023-03-10T16:14:04.999Z,61.60
2023-03-10T16:16:32.772Z,61.17
2023-03-10T16:19:00.393Z,61.81
2023-03-10T16:21:28.266Z,61.29
2023-03-10T16:23:55.985Z,61.43
2023-03-10T16:26:25.696Z,61.39
2023-03-10T16:28:55.296Z,61.56
2023-03-10T16:31:24.559Z,61.45
2023-03-10T16:33:52.306Z,61.11
2023-03-10T16:36:22.112Z,61.49
2023-03-10T16:38:50.434Z,61.46
2023-03-10T16:41:18.666Z,61.49
2023-03-10T16:43:47.842Z,61.49
2023-03-10T16:46:20.057Z,61.59
2023-03-10T16:48:49.142Z,61.73
2023-03-10T16:51:24.138Z,61.37
2023-03-10T16:53:52.692Z,61.34
2023-03-10T16:56:20.637Z,61.48
2023-03-10T16:58:49.645Z,61.44
2023-03-10T17:01:17.274Z,61.53
2023-03-10T17:03:44.931Z,61.19
2023-03-10T17:06:14.324Z,61.30
2023-03-10T17:08:42.678Z,61.50
2023-03-10T17:11:18.843Z,61.50
2023-03-10T17:13:47.374Z,61.57
2023-03-10T17:16:17.248Z,61.63
2023-03-10T17:18:45.447Z,61.41
2023-03-10T17:21:15.656Z,61.64
2023-03-10T17:23:44.039Z,61.33
2023-03-10T17:26:12.418Z,61.47
2023-03-10T17:28:41.434Z,61.52
2023-03-10T17:31:10.319Z,61.38
2023-03-10T17:33:39.936Z,61.36
2023-03-10T17:36:10.864Z,61.62
2023-03-10T17:38:38.901Z,61.39
2023-03-10T17:41:08.079Z,61.56
2023-03-10T17:43:36.064Z,61.21
2023-03-10T17:46:06.163Z,61.53
2023-03-10T17:48:35.349Z,61.25
2023-03-10T17:51:04.807Z,60.99
2023-03-10T17:53:32.923Z,61.40
2023-03-10T17:56:04.203Z,61.47
2023-03-10T17:58:31.881Z,61.48
2023-03-10T18:00:59.463Z,61.41
2023-03-10T18:03:27.215Z,61.17
2023-03-10T18:05:54.798Z,61.51
2023-03-10T18:08:23.852Z,61.24
2023-03-10T18:11:00.874Z,61.43
2023-03-10T18:13:28.537Z,61.22
2023-03-10T18:15:56.349Z,61.72
2023-03-10T18:18:24.883Z,61.48
2023-03-10T18:20:52.554Z,61.34
2023-03-10T18:23:23.154Z,61.69
2023-03-10T18:25:51.716Z,61.47
2023-03-10T18:28:20.696Z,61.43
2023-03-10T18:30:51.895Z,61.24
2023-03-10T18:33:19.911Z,61.25
2023-03-10T18:35:48.702Z,61.80
2023-03-10T18:38:17.999Z,61.27
2023-03-10T18:40:46.932Z,61.58
2023-03-10T18:43:14.520Z,61.79
2023-03-10T18:45:43.985Z,61.21
2023-03-10T18:48:11.586Z,61.53
2023-03-10T18:50:39.150Z,61.27
2023-03-10T18:53:06.739Z,61.48
2023-03-10T18:55:34.304Z,61.50
2023-03-10T18:58:03.350Z,61.53
2023-03-10T19:00:30.954Z,61.58
2023-03-10T19:02:58.574Z,61.53
2023-03-10T19:05:26.444Z,61.20
2023-03-10T19:07:54.064Z,61.59
2023-03-10T19:10:22.280Z,61.25
2023-03-10T19:12:49.955Z,61.44
2023-03-10T19:15:19.013Z,61.48
2023-03-10T19:17:46.751Z,61.20
2023-03-10T19:20:15.977Z,61.39
2023-03-10T19:22:45.317Z,61.50
2023-03-10T19:25:13.033Z,61.58
2023-03-10T19:27:40.756Z,61.68
2023-03-10T19:30:12.024Z,61.46
2023-03-10T19:32:41.415Z,61.47
2023-03-10T19:35:09.804Z,61.56
2023-03-10T19:37:38.908Z,61.76
2023-03-10T19:40:08.580Z,61.25
2023-03-10T19:42:38.833Z,61.54
2023-03-10T19:45:08.198Z,62.83
2023-03-10T19:47:35.794Z,62.27
2023-03-10T19:50:05.902Z,62.00
2023-03-10T19:52:33.626Z,57.33
2023-03-10T19:55:01.714Z,53.98
2023-03-10T19:57:30.082Z,53.12
2023-03-10T19:59:58.223Z,51.83
2023-03-10T20:02:26.218Z,51.38
2023-03-10T20:04:53.988Z,51.39
2023-03-10T20:07:22.917Z,49.73
2023-03-10T20:09:50.536Z,49.63
2023-03-10T20:12:18.142Z,49.79
2023-03-10T20:14:45.703Z,49.96
2023-03-10T20:17:13.250Z,49.67
2023-03-10T20:19:41.367Z,49.68
2023-03-10T20:22:08.986Z,49.83
2023-03-10T20:24:37.919Z,49.77
2023-03-10T20:27:05.780Z,49.41
2023-03-10T20:29:33.630Z,50.07
2023-03-10T20:32:01.358Z,50.14
2023-03-10T20:34:28.981Z,49.70
2023-03-10T20:36:56.611Z,49.77
2023-03-10T20:39:25.256Z,49.22
2023-03-10T20:41:54.193Z,48.89
2023-03-10T20:44:21.764Z,49.03
2023-03-10T20:46:49.406Z,48.56
2023-03-10T20:49:17.047Z,48.09
2023-03-10T20:51:44.634Z,47.84
2023-03-10T20:54:12.287Z,47.76
2023-03-10T20:56:40.022Z,47.45
2023-03-10T20:59:09.016Z,47.45
2023-03-10T21:01:39.778Z,47.41
2023-03-10T21:04:07.658Z,46.74
2023-03-10T21:06:35.865Z,46.93
2023-03-10T21:09:05.850Z,46.47
2023-03-10T21:11:34.166Z,46.42
2023-03-10T21:14:01.837Z,46.86
2023-03-10T21:16:30.967Z,47.37
2023-03-10T21:18:58.657Z,47.43
2023-03-10T21:21:26.235Z,47.53
2023-03-10T21:23:53.884Z,47.23
2023-03-10T21:26:22.363Z,47.20
2023-03-10T21:28:50.233Z,47.22
2023-03-10T21:31:18.191Z,46.93
2023-03-10T21:33:47.258Z,47.00
2023-03-10T21:36:16.238Z,46.65
2023-03-10T21:38:43.964Z,46.78
2023-03-10T21:41:13.196Z,47.08
2023-03-10T21:43:40.806Z,47.49
2023-03-10T21:46:08.479Z,47.36
2023-03-10T21:48:36.144Z,47.56
2023-03-10T21:51:06.168Z,47.38
2023-03-10T21:53:33.813Z,47.58
2023-03-10T21:56:01.431Z,48.01
2023-03-10T21:58:29.031Z,47.54
2023-03-10T22:00:56.907Z,47.17
2023-03-10T22:03:24.531Z,47.27
2023-03-10T22:05:52.146Z,47.42
2023-03-10T22:08:21.898Z,47.31
2023-03-10T22:10:49.605Z,46.56
2023-03-10T22:13:17.252Z,46.13
2023-03-10T22:15:44.985Z,46.26
2023-03-10T22:18:12.614Z,45.55
2023-03-10T22:20:40.253Z,47.08
2023-03-10T22:23:07.940Z,46.55
2023-03-10T22:25:37.128Z,46.33
2023-03-10T22:28:05.383Z,46.59
2023-03-10T22:30:33.003Z,46.97
2023-03-10T22:33:00.702Z,47.39
2023-03-10T22:35:28.332Z,47.75
2023-03-10T22:37:56.001Z,47.98
2023-03-10T22:40:25.412Z,47.94
2023-03-10T22:42:55.500Z,48.43
2023-03-10T22:45:25.321Z,48.80
2023-03-10T22:47:54.945Z,49.03
2023-03-10T22:50:25.611Z,49.16
2023-03-10T22:52:53.412Z,49.20
2023-03-10T22:55:23.552Z,49.53
2023-03-10T22:57:51.189Z,49.97
2023-03-10T23:00:22.586Z,50.16
2023-03-10T23:02:52.140Z,50.64
2023-03-10T23:05:20.347Z,50.56
2023-03-10T23:07:48.947Z,51.15
2023-03-10T23:10:20.693Z,51.22
2023-03-10T23:12:49.190Z,51.38
2023-03-10T23:15:24.870Z,51.81
2023-03-10T23:17:55.641Z,51.61
2023-03-10T23:20:26.810Z,52.07
2023-03-10T23:22:55.617Z,51.90
2023-03-10T23:25:29.124Z,52.57
2023-03-10T23:27:57.192Z,52.51
2023-03-10T23:30:24.913Z,52.60
2023-03-10T23:32:54.395Z,53.05
2023-03-10T23:35:24.196Z,52.89
2023-03-10T23:37:52.484Z,53.06
2023-03-10T23:40:22.074Z,53.20
2023-03-10T23:42:49.938Z,53.23
2023-03-10T23:45:19.292Z,53.63
2023-03-10T23:47:47.575Z,53.44
2023-03-10T23:50:19.455Z,53.68
2023-03-10T23:52:47.949Z,53.80
2023-03-10T23:55:17.881Z,53.99
2023-03-10T23:57:45.723Z,54.25
